createdAt,value
2019-04-13T00:02:28.014Z,99.90
2019-04-13T00:05:20.315Z,99.90
2019-04-13T00:07:53.861Z,99.90
2019-04-13T00:10:40.210Z,99.90
2019-04-13T00:13:12.011Z,99.90
2019-04-13T00:15:43.388Z,99.90
2019-04-13T00:18:14.551Z,99.90
2019-04-13T00:20:45.848Z,99.90
2019-04-13T00:23:17.209Z,99.90
2019-04-13T00:25:48.501Z,99.90
2019-04-13T00:28:19.784Z,99.90
2019-04-13T00:30:51.067Z,99.90
2019-04-13T00:33:22.303Z,99.90
2019-04-13T00:35:53.306Z,99.90
2019-04-13T00:38:24.515Z,99.90
2019-04-13T00:40:55.622Z,99.90
2019-04-13T00:43:26.488Z,99.90
2019-04-13T00:45:58.328Z,99.90
2019-04-13T00:48:29.500Z,99.90
2019-04-13T00:51:00.893Z,99.90
2019-04-13T00:53:32.175Z,99.90
2019-04-13T00:56:03.564Z,99.90
2019-04-13T00:58:34.859Z,99.90
2019-04-13T01:01:06.870Z,99.90
2019-04-13T01:03:38.018Z,99.90
2019-04-13T01:06:09.328Z,99.90
2019-04-13T01:08:44.014Z,99.90
2019-04-13T01:11:15.214Z,99.90
2019-04-13T01:13:46.412Z,99.90
2019-04-13T01:16:17.708Z,99.90
2019-04-13T01:18:48.934Z,99.90
2019-04-13T01:21:20.611Z,99.90
2019-04-13T01:23:51.455Z,99.90
2019-04-13T01:26:22.757Z,99.90
2019-04-13T01:28:54.121Z,99.90
2019-04-13T01:31:25.637Z,99.90
2019-04-13T01:33:58.441Z,99.90
2019-04-13T01:36:29.897Z,99.90
2019-04-13T01:39:01.267Z,99.90
2019-04-13T01:41:33.996Z,99.90
2019-04-13T01:44:05.221Z,99.90
2019-04-13T01:46:36.446Z,99.90
2019-04-13T01:49:07.512Z,99.90
2019-04-13T01:51:38.781Z,99.90
2019-04-13T01:54:10.075Z,99.90
2019-04-13T01:56:40.950Z,99.90
2019-04-13T01:59:12.249Z,99.90
2019-04-13T02:02:06.436Z,99.90
2019-04-13T02:04:44.725Z,99.90
2019-04-13T02:07:37.811Z,99.90
2019-04-13T02:10:22.475Z,99.90
2019-04-13T02:12:53.444Z,99.90
2019-04-13T02:15:24.658Z,99.90
2019-04-13T02:17:55.580Z,99.90
2019-04-13T02:20:26.782Z,99.90
2019-04-13T02:22:58.042Z,99.90
2019-04-13T02:25:29.270Z,99.90
2019-04-13T02:28:00.343Z,99.90
2019-04-13T02:30:31.549Z,99.90
2019-04-13T02:33:03.071Z,99.90
2019-04-13T02:35:36.620Z,99.90
2019-04-13T02:38:07.548Z,99.90
2019-04-13T02:40:39.029Z,99.90
2019-04-13T02:43:10.352Z,99.90
2019-04-13T02:45:41.677Z,99.90
2019-04-13T02:48:12.983Z,99.90
2019-04-13T02:50:44.194Z,99.90
2019-04-13T02:53:15.939Z,99.90
2019-04-13T02:55:47.076Z,99.90
2019-04-13T02:58:18.249Z,99.90
2019-04-13T03:00:50.569Z,99.90
2019-04-13T03:03:21.746Z,99.90
2019-04-13T03:05:52.818Z,99.90
2019-04-13T03:08:23.952Z,99.90
2019-04-13T03:10:55.499Z,99.90
2019-04-13T03:13:27.141Z,99.90
2019-04-13T03:16:17.288Z,99.90
2019-04-13T03:19:09.393Z,99.90
2019-04-13T03:21:40.755Z,99.90
2019-04-13T03:24:12.088Z,99.90
2019-04-13T03:26:43.254Z,99.90
2019-04-13T03:29:14.543Z,99.90
2019-04-13T03:31:45.785Z,99.90
2019-04-13T03:34:17.812Z,99.90
2019-04-13T03:36:49.140Z,99.90
2019-04-13T03:39:20.204Z,99.90
2019-04-13T03:41:51.936Z,99.90
2019-04-13T03:44:23.038Z,99.90
2019-04-13T03:46:54.179Z,99.90
2019-04-13T03:49:25.344Z,99.90
2019-04-13T03:51:56.220Z,99.90
2019-04-13T03:54:27.503Z,99.90
2019-04-13T03:56:58.913Z,99.90
2019-04-13T03:59:30.162Z,99.90
2019-04-13T04:02:01.632Z,99.90
2019-04-13T04:04:32.411Z,99.90
2019-04-13T04:07:04.231Z,99.90
2019-04-13T04:09:35.080Z,99.90
2019-04-13T04:12:10.174Z,99.90
2019-04-13T04:14:41.397Z,99.90
2019-04-13T04:17:12.538Z,99.90
2019-04-13T04:19:43.503Z,99.90
2019-04-13T04:22:14.664Z,99.90
2019-04-13T04:24:46.308Z,99.90
2019-04-13T04:27:17.585Z,99.90
2019-04-13T04:29:49.028Z,99.90
2019-04-13T04:32:20.185Z,99.90
2019-04-13T04:34:51.790Z,99.90
2019-04-13T04:37:23.069Z,99.90
2019-04-13T04:39:54.120Z,99.90
2019-04-13T04:42:25.183Z,99.90
2019-04-13T04:44:56.696Z,99.90
2019-04-13T04:47:27.892Z,99.90
2019-04-13T04:49:59.552Z,99.90
2019-04-13T04:52:30.713Z,99.90
2019-04-13T04:55:02.013Z,99.90
2019-04-13T04:57:34.131Z,99.90
2019-04-13T05:00:05.780Z,99.90
2019-04-13T05:02:36.969Z,99.90
2019-04-13T05:05:12.295Z,99.90
2019-04-13T05:07:44.067Z,99.90
2019-04-13T05:10:15.397Z,99.90
2019-04-13T05:12:46.662Z,99.90
2019-04-13T05:15:17.921Z,99.90
2019-04-13T05:17:49.160Z,99.90
2019-04-13T05:20:20.372Z,99.90
2019-04-13T05:22:51.768Z,99.90
2019-04-13T05:25:23.086Z,99.90
2019-04-13T05:27:53.918Z,99.90
2019-04-13T05:30:25.295Z,99.90
2019-04-13T05:32:56.337Z,99.90
2019-04-13T05:35:27.557Z,99.90
2019-04-13T05:37:58.536Z,99.90
2019-04-13T05:40:29.885Z,99.90
2019-04-13T05:43:01.145Z,99.90
2019-04-13T05:45:32.102Z,99.90
2019-04-13T05:48:03.509Z,99.90
2019-04-13T05:50:34.861Z,99.90
2019-04-13T05:53:06.074Z,99.90
2019-04-13T05:55:37.404Z,99.90
2019-04-13T05:58:08.736Z,99.90
2019-04-13T06:00:39.999Z,99.90
2019-04-13T06:03:11.357Z,99.90
2019-04-13T06:05:42.527Z,99.90
2019-04-13T06:08:13.810Z,99.90
2019-04-13T06:10:45.063Z,99.90
2019-04-13T06:13:16.476Z,99.90
2019-04-13T06:15:47.453Z,99.90
2019-04-13T06:18:21.208Z,99.90
2019-04-13T06:20:52.240Z,99.90
2019-04-13T06:23:23.430Z,99.90
2019-04-13T06:25:54.560Z,99.90
2019-04-13T06:28:28.600Z,99.90
2019-04-13T06:31:17.752Z,99.90
2019-04-13T06:34:11.963Z,99.90
2019-04-13T06:36:43.756Z,99.90
2019-04-13T06:39:15.782Z,99.90
2019-04-13T06:41:48.211Z,99.90
2019-04-13T06:44:19.571Z,99.90
2019-04-13T06:46:50.778Z,99.90
2019-04-13T06:49:26.910Z,99.90
2019-04-13T06:51:56.856Z,99.90
2019-04-13T06:54:28.256Z,99.90
2019-04-13T06:56:59.662Z,99.90
2019-04-13T06:59:30.903Z,99.90
2019-04-13T07:02:01.831Z,99.90
2019-04-13T07:04:33.344Z,99.90
2019-04-13T07:07:08.604Z,99.90
2019-04-13T07:09:49.895Z,99.90
2019-04-13T07:12:31.930Z,99.90
2019-04-13T07:15:03.032Z,99.90
2019-04-13T07:17:34.220Z,99.90
2019-04-13T07:20:05.214Z,99.90
2019-04-13T07:22:38.452Z,99.90
2019-04-13T07:25:10.558Z,99.90
2019-04-13T07:27:42.063Z,99.90
2019-04-13T07:30:14.283Z,99.90
2019-04-13T07:32:45.658Z,99.90
2019-04-13T07:35:17.013Z,99.90
2019-04-13T07:37:47.978Z,99.90
2019-04-13T07:40:20.882Z,99.90
2019-04-13T07:42:52.424Z,99.90
2019-04-13T07:45:45.672Z,99.90
2019-04-13T07:48:40.314Z,99.90
2019-04-13T07:51:36.580Z,99.90
2019-04-13T07:54:08.233Z,99.90
2019-04-13T07:56:39.484Z,99.90
2019-04-13T07:59:10.750Z,99.90
2019-04-13T08:01:41.680Z,99.90
2019-04-13T08:04:12.946Z,99.90
2019-04-13T08:06:44.101Z,99.90
2019-04-13T08:09:15.305Z,99.90
2019-04-13T08:11:46.849Z,99.90
2019-04-13T08:14:27.290Z,99.90
2019-04-13T08:16:59.321Z,99.90
2019-04-13T08:19:35.341Z,99.90
2019-04-13T08:22:06.330Z,99.90
2019-04-13T08:24:37.415Z,99.90
2019-04-13T08:27:09.006Z,99.90
2019-04-13T08:29:40.015Z,99.90
2019-04-13T08:32:11.046Z,99.90
2019-04-13T08:34:43.469Z,99.90
2019-04-13T08:37:14.792Z,99.90
2019-04-13T08:40:01.330Z,99.90
2019-04-13T08:42:25.919Z,99.90
2019-04-13T08:44:54.293Z,99.90
2019-04-13T08:47:25.824Z,99.70
2019-04-13T08:50:10.545Z,99.90
2019-04-13T08:56:41.269Z,99.30
2019-04-13T08:59:12.283Z,98.70
2019-04-13T09:01:43.503Z,98.30
2019-04-13T09:04:14.593Z,98.30
2019-04-13T09:06:46.022Z,98.40
2019-04-13T09:09:17.233Z,98.40
2019-04-13T09:11:49.428Z,97.80
2019-04-13T09:14:20.624Z,97.40
2019-04-13T09:16:51.645Z,97.50
2019-04-13T09:19:41.156Z,97.40
2019-04-13T09:22:18.693Z,97.40
2019-04-13T09:24:52.679Z,97.60
2019-04-13T09:27:22.770Z,98.60
2019-04-13T09:29:53.721Z,98.40
2019-04-13T09:32:24.985Z,98.00
2019-04-13T09:34:56.069Z,97.60
2019-04-13T09:37:27.797Z,96.90
2019-04-13T09:39:59.254Z,97.30
2019-04-13T09:42:30.655Z,97.70
2019-04-13T09:45:04.355Z,98.50
2019-04-13T09:47:36.003Z,98.60
2019-04-13T09:50:07.234Z,98.20
2019-04-13T09:52:39.834Z,98.20
2019-04-13T09:55:15.650Z,97.80
2019-04-13T09:57:45.984Z,97.80
2019-04-13T10:00:17.459Z,97.10
2019-04-13T10:02:48.759Z,97.50
2019-04-13T10:05:20.169Z,98.20
2019-04-13T10:07:51.424Z,98.30
2019-04-13T10:10:22.573Z,98.50
2019-04-13T10:13:02.986Z,98.70
2019-04-13T10:15:53.096Z,99.20
2019-04-13T10:18:40.572Z,99.50
2019-04-13T10:21:13.163Z,99.90
2019-04-13T10:23:46.126Z,99.90
2019-04-13T10:26:17.484Z,99.90
2019-04-13T10:28:48.885Z,99.90
2019-04-13T10:31:20.358Z,99.80
2019-04-13T10:33:51.894Z,99.80
2019-04-13T10:36:23.065Z,99.60
2019-04-13T10:38:54.032Z,99.90
2019-04-13T10:41:25.521Z,99.50
2019-04-13T10:43:59.563Z,99.60
2019-04-13T10:46:47.928Z,99.40
2019-04-13T10:49:26.732Z,99.40
2019-04-13T10:52:03.156Z,99.00
2019-04-13T10:54:35.473Z,99.00
2019-04-13T10:57:06.816Z,98.60
2019-04-13T10:59:38.171Z,98.80
2019-04-13T11:02:09.104Z,99.20
2019-04-13T11:04:40.732Z,99.20
2019-04-13T11:07:11.753Z,99.90
2019-04-13T11:09:44.085Z,99.90
2019-04-13T11:12:34.418Z,99.90
2019-04-13T11:15:06.140Z,99.90
2019-04-13T11:17:37.496Z,99.90
2019-04-13T11:20:13.758Z,99.90
2019-04-13T11:22:42.296Z,99.90
2019-04-13T11:25:13.684Z,99.90
2019-04-13T11:27:45.026Z,99.90
2019-04-13T11:30:16.371Z,99.90
2019-04-13T11:32:47.470Z,99.90
2019-04-13T11:35:19.013Z,99.90
2019-04-13T11:37:50.465Z,99.90
2019-04-13T11:40:22.012Z,99.90
2019-04-13T11:43:01.738Z,99.90
2019-04-13T11:45:56.062Z,99.90
2019-04-13T11:48:50.645Z,99.90
2019-04-13T11:51:26.879Z,99.90
2019-04-13T11:53:57.901Z,99.90
2019-04-13T11:56:29.490Z,99.90
2019-04-13T11:59:00.786Z,99.90
2019-04-13T12:02:06.559Z,99.90
2019-04-13T12:05:03.085Z,99.90
2019-04-13T12:07:44.956Z,99.90
2019-04-13T12:10:48.327Z,99.90
2019-04-13T12:13:31.956Z,99.90
2019-04-13T12:16:08.431Z,99.90
2019-04-13T12:19:02.824Z,99.90
2019-04-13T12:22:05.179Z,99.90
2019-04-13T12:24:36.609Z,99.90
2019-04-13T12:27:08.414Z,99.90
2019-04-13T12:29:40.140Z,99.40
2019-04-13T12:32:24.022Z,99.40
2019-04-13T12:34:55.488Z,99.70
2019-04-13T12:37:26.972Z,99.70
2019-04-13T12:40:04.155Z,99.60
2019-04-13T12:42:35.300Z,99.50
2019-04-13T12:45:08.054Z,99.90
2019-04-13T12:47:42.126Z,99.80
2019-04-13T12:50:12.892Z,99.80
2019-04-13T12:52:44.180Z,99.40
2019-04-13T12:55:19.638Z,99.30
2019-04-13T12:57:49.877Z,99.50
2019-04-13T13:00:42.557Z,99.90
2019-04-13T13:03:17.269Z,99.90
2019-04-13T13:05:53.084Z,99.90
2019-04-13T13:08:24.671Z,99.90
2019-04-13T13:10:56.224Z,99.90
2019-04-13T13:13:27.413Z,99.90
2019-04-13T13:15:59.067Z,99.90
2019-04-13T13:18:30.247Z,99.90
2019-04-13T13:21:01.578Z,99.90
2019-04-13T13:23:32.876Z,99.90
2019-04-13T13:26:07.982Z,99.90
2019-04-13T13:28:41.014Z,99.90
2019-04-13T13:31:11.815Z,99.10
2019-04-13T13:33:43.032Z,98.50
2019-04-13T13:36:14.387Z,98.00
2019-04-13T13:38:46.063Z,97.90
2019-04-13T13:41:17.221Z,98.10
2019-04-13T13:43:48.455Z,98.40
2019-04-13T13:46:19.908Z,98.40
2019-04-13T13:48:51.280Z,98.40
2019-04-13T13:51:26.630Z,97.50
2019-04-13T13:53:56.573Z,97.30
2019-04-13T13:56:30.385Z,97.60
2019-04-13T13:59:04.501Z,97.90
2019-04-13T14:01:58.701Z,96.90
2019-04-13T14:04:29.947Z,96.70
2019-04-13T14:07:01.724Z,96.50
2019-04-13T14:09:33.203Z,96.80
2019-04-13T14:12:04.286Z,96.30
2019-04-13T14:14:35.568Z,96.00
2019-04-13T14:17:06.667Z,94.90
2019-04-13T14:19:38.104Z,94.80
2019-04-13T14:22:09.195Z,93.90
2019-04-13T14:24:40.800Z,93.40
2019-04-13T14:27:12.455Z,93.90
2019-04-13T14:29:46.250Z,93.40
2019-04-13T14:32:19.228Z,93.40
2019-04-13T14:34:50.805Z,94.00
2019-04-13T14:37:22.024Z,93.20
2019-04-13T14:39:53.319Z,92.90
2019-04-13T14:42:24.790Z,93.20
2019-04-13T14:44:56.283Z,94.00
2019-04-13T14:47:27.819Z,94.20
2019-04-13T14:49:59.711Z,93.40
2019-04-13T14:52:31.089Z,91.60
2019-04-13T14:55:02.356Z,90.50
2019-04-13T14:57:38.469Z,90.00
2019-04-13T15:00:08.115Z,90.30
2019-04-13T15:02:39.524Z,90.50
2019-04-13T15:05:14.712Z,89.40
2019-04-13T15:07:44.183Z,88.30
2019-04-13T15:10:15.109Z,86.00
2019-04-13T15:12:46.534Z,86.90
2019-04-13T15:15:20.229Z,86.90
2019-04-13T15:17:55.747Z,85.70
2019-04-13T15:20:33.987Z,86.50
2019-04-13T15:23:01.946Z,88.60
2019-04-13T15:25:33.313Z,90.00
2019-04-13T15:28:04.648Z,90.20
2019-04-13T15:30:35.903Z,90.40
2019-04-13T15:33:11.052Z,90.50
2019-04-13T15:35:41.278Z,89.30
2019-04-13T15:38:13.133Z,86.80
2019-04-13T15:40:45.340Z,84.10
2019-04-13T15:43:23.271Z,85.90
2019-04-13T15:45:51.141Z,87.50
2019-04-13T15:48:25.413Z,86.90
2019-04-13T15:50:55.595Z,85.50
2019-04-13T15:53:26.838Z,85.40
2019-04-13T15:55:58.940Z,86.30
2019-04-13T15:58:30.319Z,85.30
2019-04-13T16:01:01.803Z,87.40
2019-04-13T16:03:33.247Z,86.90
2019-04-13T16:06:04.794Z,84.70
2019-04-13T16:08:47.004Z,83.40
2019-04-13T16:11:29.412Z,81.80
2019-04-13T16:14:04.133Z,83.60
2019-04-13T16:16:35.780Z,84.40
2019-04-13T16:19:09.232Z,85.50
2019-04-13T16:21:41.125Z,88.50
2019-04-13T16:24:13.414Z,90.50
2019-04-13T16:26:44.809Z,92.70
2019-04-13T16:29:47.261Z,92.90
2019-04-13T16:32:43.354Z,91.90
2019-04-13T16:35:27.427Z,91.60
2019-04-13T16:38:01.282Z,90.80
2019-04-13T16:40:33.942Z,91.40
2019-04-13T16:43:05.878Z,92.20
2019-04-13T16:46:11.535Z,93.00
2019-04-13T16:49:23.679Z,93.40
2019-04-13T16:52:14.181Z,93.40
2019-04-13T16:55:11.335Z,92.40
2019-04-13T16:57:52.330Z,91.60
2019-04-13T17:00:42.402Z,91.50
2019-04-13T17:03:33.624Z,91.40
2019-04-13T17:06:06.886Z,91.80
2019-04-13T17:08:39.083Z,92.50
2019-04-13T17:11:11.246Z,93.10
2019-04-13T17:13:43.346Z,93.30
2019-04-13T17:16:14.725Z,93.60
2019-04-13T17:18:57.274Z,94.50
2019-04-13T17:21:44.304Z,94.50
2019-04-13T17:24:28.103Z,94.90
2019-04-13T17:27:17.320Z,95.10
2019-04-13T17:30:09.519Z,94.90
2019-04-13T17:32:49.861Z,94.60
2019-04-13T17:35:24.567Z,94.20
2019-04-13T17:37:56.974Z,94.30
2019-04-13T17:40:30.484Z,94.70
2019-04-13T17:43:20.313Z,94.60
2019-04-13T17:46:11.371Z,94.90
2019-04-13T17:49:00.646Z,95.70
2019-04-13T17:51:51.807Z,96.60
2019-04-13T17:54:47.498Z,97.50
2019-04-13T17:57:37.207Z,98.30
2019-04-13T18:00:33.573Z,98.90
2019-04-13T18:03:26.754Z,99.60
2019-04-13T18:06:08.774Z,99.90
2019-04-13T18:09:05.659Z,99.90
2019-04-13T18:11:56.046Z,99.90
2019-04-13T18:14:49.374Z,99.90
2019-04-13T18:17:39.527Z,99.90
2019-04-13T18:20:11.471Z,99.90
2019-04-13T18:22:45.320Z,99.90
2019-04-13T18:25:29.573Z,99.90
2019-04-13T18:27:50.835Z,99.90
2019-04-13T18:30:32.547Z,99.90
2019-04-13T18:32:55.776Z,99.90
2019-04-13T18:35:27.631Z,99.90
2019-04-13T18:37:59.074Z,99.90
2019-04-13T18:40:30.483Z,99.90
2019-04-13T18:43:09.331Z,99.90
2019-04-13T18:45:36.526Z,99.90
2019-04-13T18:48:07.948Z,99.90
2019-04-13T18:50:39.495Z,99.90
2019-04-13T18:53:11.116Z,99.90
2019-04-13T18:55:43.096Z,99.90
2019-04-13T18:58:14.634Z,99.90
2019-04-13T19:00:49.174Z,99.90
2019-04-13T19:03:21.469Z,99.90
2019-04-13T19:05:52.824Z,99.90
2019-04-13T19:08:24.369Z,99.90
2019-04-13T19:10:55.591Z,99.90
2019-04-13T19:13:26.770Z,99.90
2019-04-13T19:15:58.159Z,99.90
2019-04-13T19:18:29.362Z,99.90
2019-04-13T19:21:01.575Z,99.90
2019-04-13T19:23:32.595Z,99.90
2019-04-13T19:26:04.513Z,99.90
2019-04-13T19:28:35.471Z,99.90
2019-04-13T19:31:10.070Z,99.90
2019-04-13T19:33:40.964Z,99.90
2019-04-13T19:36:11.953Z,99.90
2019-04-13T19:38:42.953Z,99.90
2019-04-13T19:41:14.064Z,99.90
2019-04-13T19:43:45.175Z,99.90
2019-04-13T19:46:16.365Z,99.90
2019-04-13T19:48:47.322Z,99.90
2019-04-13T19:51:20.095Z,99.90
2019-04-13T19:53:57.940Z,99.90
2019-04-13T19:56:28.845Z,99.90
2019-04-13T19:58:59.849Z,99.90
2019-04-13T20:01:32.238Z,99.90
2019-04-13T20:04:03.675Z,99.90
2019-04-13T20:06:34.772Z,99.90
2019-04-13T20:09:07.412Z,99.90
2019-04-13T20:11:38.946Z,99.90
2019-04-13T20:14:13.033Z,99.90
2019-04-13T20:16:42.724Z,99.90
2019-04-13T20:19:13.981Z,99.90
2019-04-13T20:21:45.194Z,99.90
2019-04-13T20:24:18.154Z,99.90
2019-04-13T20:26:49.289Z,99.90
2019-04-13T20:29:20.942Z,99.90
2019-04-13T20:31:53.063Z,99.90
2019-04-13T20:34:24.857Z,99.90
2019-04-13T20:36:57.008Z,99.90
2019-04-13T20:39:29.156Z,99.90
2019-04-13T20:42:05.797Z,99.90
2019-04-13T20:44:32.482Z,99.90
2019-04-13T20:47:04.552Z,99.90
2019-04-13T20:49:36.884Z,99.90
2019-04-13T20:52:08.219Z,99.90
2019-04-13T20:54:40.587Z,99.90
2019-04-13T20:57:11.636Z,99.90
2019-04-13T20:59:43.311Z,99.90
2019-04-13T21:02:15.533Z,99.90
2019-04-13T21:04:48.070Z,99.90
2019-04-13T21:07:20.496Z,99.90
2019-04-13T21:09:51.971Z,99.90
2019-04-13T21:12:23.209Z,99.90
2019-04-13T21:14:55.173Z,99.90
2019-04-13T21:17:26.905Z,99.90
2019-04-13T21:19:59.001Z,99.90
2019-04-13T21:22:31.091Z,99.90
2019-04-13T21:25:03.505Z,99.90
2019-04-13T21:27:36.123Z,99.90
2019-04-13T21:30:07.894Z,99.90
2019-04-13T21:32:40.055Z,99.90
2019-04-13T21:35:12.163Z,99.90
2019-04-13T21:37:44.422Z,99.90
2019-04-13T21:40:16.559Z,99.90
2019-04-13T21:42:49.020Z,99.90
2019-04-13T21:45:21.079Z,99.90
2019-04-13T21:47:53.465Z,99.90
2019-04-13T21:50:56.627Z,99.90
2019-04-13T21:53:42.143Z,99.90
2019-04-13T21:56:14.381Z,99.90
2019-04-13T21:58:46.864Z,99.90
2019-04-13T22:01:45.346Z,99.90
2019-04-13T22:04:17.379Z,99.90
2019-04-13T22:06:49.606Z,99.90
2019-04-13T22:09:23.855Z,99.90
2019-04-13T22:11:56.078Z,99.90
2019-04-13T22:14:39.408Z,99.90
2019-04-13T22:17:02.820Z,99.90
2019-04-13T22:19:35.458Z,99.90
2019-04-13T22:22:07.671Z,99.90
2019-04-13T22:24:39.856Z,99.90
2019-04-13T22:27:12.958Z,99.90
2019-04-13T22:29:57.466Z,99.90
2019-04-13T22:32:38.525Z,99.90
2019-04-13T22:35:25.941Z,99.90
2019-04-13T22:37:58.094Z,99.90
2019-04-13T22:40:30.096Z,99.90
2019-04-13T22:43:02.423Z,99.90
2019-04-13T22:45:34.106Z,99.90
2019-04-13T22:48:27.437Z,99.90
2019-04-13T22:51:14.038Z,99.90
2019-04-13T22:54:12.171Z,99.90
2019-04-13T22:56:46.751Z,99.90
2019-04-13T22:59:19.091Z,99.90
2019-04-13T23:01:59.514Z,99.90
2019-04-13T23:04:31.870Z,99.90
2019-04-13T23:07:04.293Z,99.90
2019-04-13T23:09:36.641Z,99.90
2019-04-13T23:12:11.401Z,99.90
2019-04-13T23:14:54.715Z,99.90
2019-04-13T23:17:15.843Z,99.90
2019-04-13T23:19:47.890Z,99.90
2019-04-13T23:22:19.471Z,99.90
2019-04-13T23:24:51.792Z,99.90
2019-04-13T23:27:24.107Z,99.90
2019-04-13T23:29:55.045Z,99.90
2019-04-13T23:32:26.966Z,99.90
2019-04-13T23:35:00.038Z,99.90
2019-04-13T23:37:32.274Z,99.90
2019-04-13T23:40:05.524Z,99.90
2019-04-13T23:42:37.254Z,99.90
2019-04-13T23:45:17.228Z,99.90
2019-04-13T23:47:42.687Z,99.90
2019-04-13T23:50:14.095Z,99.90
2019-04-13T23:52:45.787Z,99.90
2019-04-13T23:55:18.767Z,99.90
2019-04-13T23:57:58.105Z,99.90
